Burmah, Idaho
Current Conditions -  °F | °C
As of 12:53 PM on Friday 31 Oct 2014 (Local Time) from KJER Reporting Station
Clear Clear  
Wind Chill: 64°   Ceiling: Unl
Heat Index: 64°   Visibility: 10mi
Dew Point: 31°   Wind: 0mph
Humidity: 29%   Direction: NA
Pressure: 29.87"   Gusts: NA
Location:  43.0455°N, 113.979°W
Report Text: KJER 311853Z AUTO 00000KT 10SM CLR 18/M01 A2987 RMK AO2 SLP095 T01781006
Loading
Personal Weather Stations






























Interactive Weather Map
Tropical Storm Tracking
New forecast layout! Learn more

10-Day Weather Forecast

Advertisements
Track Severe Weather on mobile